Kenai Municipal Airport
PAEN : now visible

Aeroporto :











RITROVATECI SU...

 
LOGIN :

Iscrizione | Disclaimer

   EN    FR    IT 

 









Sommario :    VFR   VFR Marginale   IFR   IFR Intensivo   IFR Molto Intensivo
Visibilità : 
Base nubi : 
>= 8 km
>= 3000ft
5 / 8 km
1000 / 3000 ft
1500m / 5 km
500 / 1000 ft
800 / 1500m
200 / 500 ft
< 800m
< 200 ft
Simboli :   Temporali  Nebbia  Neve Forte  Precipitazioni Forti  Vento > 20 kt






- Altitudine del aeroporto : 99 ft
- Codice IATA : ENA


PAEN - Kenai Municipal

ULTIMO METAR :
  • 011953Z 07008KT 10SM FEW065 16/03 A2957 RMK AO2 SLP015 T01610033

METARs OBSOLETI :
  • 011853Z 04007KT 10SM FEW050 16/03 A2958 RMK AO2 SLP018 T01560033
  • 011753Z 04009KT 10SM CLR 14/04 A2958 RMK AO2 SLP017 T01440044 10144 20017 58004

TAF PAEN
Valido dal 01 a 18 ore il 02 a 18 ore UTC


011740Z 0118/0218 03009KT P6SM SCT200
FM012200 07009KT P6SM FEW050 BKN100
FIR PAZA / America del Nord



MetMap, La meteo Aeronautica in un colpo d'occhio ! - Copyright ORBIFLY Dicembre 2007 - Disclaimer

ORBIFLY MET'MAP TEAM :

Programmazione e sviluppo : Alexandra Zaïnal
Concezione : Baudouin d'Aumeries
Aiuto per la programmazione : Marc-Olivier Méhu
Supporto tecnico e logistico : Manuel Goepfert
Aiuto per la traduzione : Arnaldo La Scala

Contatto : metmap@orbifly.com




FONTI E CREDITI :

   NOAA       Earth
Advisory